Home > Products > Valid Products > FWO

000
SHUS65 KGJT 272016
FWOGJT

DAILY FIRE WEATHER OBSERVATION
NATIONAL WEATHER SERVICE GRAND JUNCTION CO
212 PM MDT THU AUG 27 2015

STATE OF THE WEATHER (W)               0
DRY BULB TEMPERATURE                   77   DEGREES FAHRENHEIT
RELATIVE HUMIDITY (RH)                 52   PERCENT
LIGHTNING ACTIVITY LEVEL
  (LAL - MIDNIGHT TO 2 PM)             2
WIND DIRECTION                         C    DEGREES (C IF CALM)
WIND SPEED                             0    MPH
MAX TEMP (2 PM - 2 PM)                 81   DEGREES FAHRENHEIT
MIN TEMP (2 PM - 2 PM)                 60   DEGREES FAHRENHEIT
MAX RH (2 PM - 2 PM)                   100  PERCENT
MIN RH (2 PM - 2 PM)                   50   PERCENT
PCPN DURATION                          6.5  HOURS
PCPN AMT (2 PM - 2 PM)                 0.38 INCHES
LAL (2 PM - 2 PM)                      2

$$

METAR KGJT 271953Z 00000KT 10SM CLR 25/14 A3022 RMK AO2 SLP174
      T02500144





000
SHUS65 KGJT 272016
FWOGJT

DAILY FIRE WEATHER OBSERVATION
NATIONAL WEATHER SERVICE GRAND JUNCTION CO
212 PM MDT THU AUG 27 2015

STATE OF THE WEATHER (W)               0
DRY BULB TEMPERATURE                   77   DEGREES FAHRENHEIT
RELATIVE HUMIDITY (RH)                 52   PERCENT
LIGHTNING ACTIVITY LEVEL
  (LAL - MIDNIGHT TO 2 PM)             2
WIND DIRECTION                         C    DEGREES (C IF CALM)
WIND SPEED                             0    MPH
MAX TEMP (2 PM - 2 PM)                 81   DEGREES FAHRENHEIT
MIN TEMP (2 PM - 2 PM)                 60   DEGREES FAHRENHEIT
MAX RH (2 PM - 2 PM)                   100  PERCENT
MIN RH (2 PM - 2 PM)                   50   PERCENT
PCPN DURATION                          6.5  HOURS
PCPN AMT (2 PM - 2 PM)                 0.38 INCHES
LAL (2 PM - 2 PM)                      2

$$

METAR KGJT 271953Z 00000KT 10SM CLR 25/14 A3022 RMK AO2 SLP174
      T02500144




000
SHUS65 KGJT 262037
FWOGJT

DAILY FIRE WEATHER OBSERVATION
NATIONAL WEATHER SERVICE GRAND JUNCTION CO
230 PM MDT WED AUG 26 2015

STATE OF THE WEATHER (W)               3
DRY BULB TEMPERATURE                   77   DEGREES FAHRENHEIT
RELATIVE HUMIDITY (RH)                 47   PERCENT
LIGHTNING ACTIVITY LEVEL
  (LAL - MIDNIGHT TO 2 PM)             1
WIND DIRECTION                         270  DEGREES (C IF CALM)
WIND SPEED                             14   MPH
MAX TEMP (2 PM - 2 PM)                 95   DEGREES FAHRENHEIT
MIN TEMP (2 PM - 2 PM)                 69   DEGREES FAHRENHEIT
MAX RH (2 PM - 2 PM)                   47   PERCENT
MIN RH (2 PM - 2 PM)                   12   PERCENT
PCPN DURATION                          0.0  HOURS
PCPN AMT (2 PM - 2 PM)                 0.0  INCHES
LAL (2 PM - 2 PM)                      1

$$

METAR KGJT 261953Z 29012KT 10SM BKN075 BKN090 25/13 A3026 RMK
      AO2 SLP176 T02500128




000
SHUS65 KGJT 262037
FWOGJT

DAILY FIRE WEATHER OBSERVATION
NATIONAL WEATHER SERVICE GRAND JUNCTION CO
230 PM MDT WED AUG 26 2015

STATE OF THE WEATHER (W)               3
DRY BULB TEMPERATURE                   77   DEGREES FAHRENHEIT
RELATIVE HUMIDITY (RH)                 47   PERCENT
LIGHTNING ACTIVITY LEVEL
  (LAL - MIDNIGHT TO 2 PM)             1
WIND DIRECTION                         270  DEGREES (C IF CALM)
WIND SPEED                             14   MPH
MAX TEMP (2 PM - 2 PM)                 95   DEGREES FAHRENHEIT
MIN TEMP (2 PM - 2 PM)                 69   DEGREES FAHRENHEIT
MAX RH (2 PM - 2 PM)                   47   PERCENT
MIN RH (2 PM - 2 PM)                   12   PERCENT
PCPN DURATION                          0.0  HOURS
PCPN AMT (2 PM - 2 PM)                 0.0  INCHES
LAL (2 PM - 2 PM)                      1

$$

METAR KGJT 261953Z 29012KT 10SM BKN075 BKN090 25/13 A3026 RMK
      AO2 SLP176 T02500128





000
SHUS65 KGJT 252018
FWOGJT

DAILY FIRE WEATHER OBSERVATION
NATIONAL WEATHER SERVICE GRAND JUNCTION CO
218 PM MDT TUE AUG 25 2015

STATE OF THE WEATHER (W)               2
DRY BULB TEMPERATURE                   90   DEGREES FAHRENHEIT
RELATIVE HUMIDITY (RH)                 17   PERCENT
LIGHTNING ACTIVITY LEVEL
  (LAL - MIDNIGHT TO 2 PM)             1
WIND DIRECTION                         225  DEGREES (C IF CALM)
WIND SPEED                             7    MPH
MAX TEMP (2 PM - 2 PM)                 94   DEGREES FAHRENHEIT
MIN TEMP (2 PM - 2 PM)                 63   DEGREES FAHRENHEIT
MAX RH (2 PM - 2 PM)                   34   PERCENT
MIN RH (2 PM - 2 PM)                   9    PERCENT
PCPN DURATION                          0.0  HOURS
PCPN AMT (2 PM - 2 PM)                 0.0  INCHES
LAL (2 PM - 2 PM)                      1

$$

METAR KGJT 251953Z 24006KT 10SM CLR 32/04 A3018 RMK AO2 SLP143
      T03220044





000
SHUS65 KGJT 252018
FWOGJT

DAILY FIRE WEATHER OBSERVATION
NATIONAL WEATHER SERVICE GRAND JUNCTION CO
218 PM MDT TUE AUG 25 2015

STATE OF THE WEATHER (W)               2
DRY BULB TEMPERATURE                   90   DEGREES FAHRENHEIT
RELATIVE HUMIDITY (RH)                 17   PERCENT
LIGHTNING ACTIVITY LEVEL
  (LAL - MIDNIGHT TO 2 PM)             1
WIND DIRECTION                         225  DEGREES (C IF CALM)
WIND SPEED                             7    MPH
MAX TEMP (2 PM - 2 PM)                 94   DEGREES FAHRENHEIT
MIN TEMP (2 PM - 2 PM)                 63   DEGREES FAHRENHEIT
MAX RH (2 PM - 2 PM)                   34   PERCENT
MIN RH (2 PM - 2 PM)                   9    PERCENT
PCPN DURATION                          0.0  HOURS
PCPN AMT (2 PM - 2 PM)                 0.0  INCHES
LAL (2 PM - 2 PM)                      1

$$

METAR KGJT 251953Z 24006KT 10SM CLR 32/04 A3018 RMK AO2 SLP143
      T03220044




000
SHUS65 KGJT 252018
FWOGJT

DAILY FIRE WEATHER OBSERVATION
NATIONAL WEATHER SERVICE GRAND JUNCTION CO
218 PM MDT TUE AUG 25 2015

STATE OF THE WEATHER (W)               2
DRY BULB TEMPERATURE                   90   DEGREES FAHRENHEIT
RELATIVE HUMIDITY (RH)                 17   PERCENT
LIGHTNING ACTIVITY LEVEL
  (LAL - MIDNIGHT TO 2 PM)             1
WIND DIRECTION                         225  DEGREES (C IF CALM)
WIND SPEED                             7    MPH
MAX TEMP (2 PM - 2 PM)                 94   DEGREES FAHRENHEIT
MIN TEMP (2 PM - 2 PM)                 63   DEGREES FAHRENHEIT
MAX RH (2 PM - 2 PM)                   34   PERCENT
MIN RH (2 PM - 2 PM)                   9    PERCENT
PCPN DURATION                          0.0  HOURS
PCPN AMT (2 PM - 2 PM)                 0.0  INCHES
LAL (2 PM - 2 PM)                      1

$$

METAR KGJT 251953Z 24006KT 10SM CLR 32/04 A3018 RMK AO2 SLP143
      T03220044





000
SHUS65 KGJT 252018
FWOGJT

DAILY FIRE WEATHER OBSERVATION
NATIONAL WEATHER SERVICE GRAND JUNCTION CO
218 PM MDT TUE AUG 25 2015

STATE OF THE WEATHER (W)               2
DRY BULB TEMPERATURE                   90   DEGREES FAHRENHEIT
RELATIVE HUMIDITY (RH)                 17   PERCENT
LIGHTNING ACTIVITY LEVEL
  (LAL - MIDNIGHT TO 2 PM)             1
WIND DIRECTION                         225  DEGREES (C IF CALM)
WIND SPEED                             7    MPH
MAX TEMP (2 PM - 2 PM)                 94   DEGREES FAHRENHEIT
MIN TEMP (2 PM - 2 PM)                 63   DEGREES FAHRENHEIT
MAX RH (2 PM - 2 PM)                   34   PERCENT
MIN RH (2 PM - 2 PM)                   9    PERCENT
PCPN DURATION                          0.0  HOURS
PCPN AMT (2 PM - 2 PM)                 0.0  INCHES
LAL (2 PM - 2 PM)                      1

$$

METAR KGJT 251953Z 24006KT 10SM CLR 32/04 A3018 RMK AO2 SLP143
      T03220044




    US Dept of Commerce
    National Oceanic and Atmospheric Administration
    National Weather Service
    1325 East West Highway
    Silver Spring, MD 20910
    Page Author: NWS Internet Services Team
Disclaimer
Information Quality
Credits
Glossary
Privacy Policy
Freedom of Information Act (FOIA)
About Us
Career Opportunities